National Weather Service United States Department of Commerce
Click Here for Latest Airport Weather Warnings
 
Latest Huntsville TAF


000
FTUS44 KHUN 280520
TAFHSV
TAF
KHSV 280520Z 2806/2906 VRB03KT P6SM SKC
FM281500 13006KT P6SM FEW050=

Latest Muscle Shoals TAF


000
FTUS44 KHUN 280520
TAFMSL
TAF
KMSL 280520Z 2806/2906 00000KT P6SM SKC
TEMPO 2810/2813 5SM BR
FM281500 16006KT P6SM FEW050=

 

Back to Main Huntsville Weather Forecast Office Page